Terminal Aerodrome Forecast
Issued by NWS

Home | Current Version | Previous Version | Text Only | Print | Product List | Glossary Off
Versions: 1 2 3 4 5 6 7 8 9 10 11 12 13 14 15 16 17 18 19 20 21 22 23 24 25 26 27

885
FTUS43 KABR 200333 AAB
TAFATY
TAF AMD
KATY 200333Z 2004/2024 16014KT 3/4SM BR OVC002
     FM200600 15010KT 1/2SM FG OVC002
     FM201000 14008KT 1/4SM FG OVC003
     FM201700 15009KT 1/2SM FG OVC003
     FM201900 15009KT 1 1/2SM BR OVC003=

USA.gov is the U.S. government's official web portal to all federal, state and local government web resources and services.